Hlavní strana
METAR-TAF:

METAR-TAF

Letiště :

Mariehamn, Finsko

zeměpisná šířka: 60-07N, zeměpisná délka: 019-54E, výška: 6 m

Aktuální stav počasí

Zpráva byla vytvořena před 14 minutami, v 21:50 UTC
Jihojihozápadní vítr 11 kt
Teplota 7°C
Vlhkost vzduchu 87%
Tlak 1006 hPa
Viditelnost 10 km a více
Skoro jasno ve výšce 1400 ft
Oblačno až skoro zataženo ve výšce 4000 ft

METAR: EFMA 122150Z AUTO 20011KT 9999 FEW014 BKN040 07/05 Q1006

Čas: 00:04 (22:04 UTC)

Předpověď počasí

Zpráva byla vytvořena před 1 hodinou a 26 minutami, v 20:38 UTC
Předpověď platná od 12 v 21 UTC do 13 v 06 UTC
Jihojihozápadní vítr 9 kt
Viditelnost 10 km a více
Polojasno ve výšce 1100 ft
Oblačno až skoro zataženo ve výšce 3500 ft
Pravděpodobnost 40%
od 12 v 21 UTC do 12 v 24 UTC
Oblačno až skoro zataženo ve výšce 1300 ft

TAF: EFMA 122038Z 1221/1306 21009KT 9999 SCT011 BKN035 PROB40 1221/1224 BKN013

Stav a předpovědi počasí z více než 4 000 letišť (zprávy METAR a TAF).

Červené a žluté tečky na mapě představují dostupné meteorologické stanice.

Když kurzor umístíte na tečku, zobrazí se název stanice.

Pak kliknutím zobrazíte stav a předpověď počasí.

Chcete-li změnit mapu, kliknutím na zelené tlačítko se znaménkem +mapu přiblížíte, kliknutím na zelené tlačítko se znaménkem – mapu oddálíte a kliknutím na zelené šipky přejdete na sousední mapy.


METAR-TAF: